Time;durP1;ratioP1;P1;durP2;ratioP2;P2;SDS_P1;SDS_P2;PMS_P1;PMS_P2;Temp;Humidity;BMP_temperature;BMP_pressure;BME280_temperature;BME280_humidity;BME280_pressure;Samples;Min_cycle;Max_cycle;Signal;HPM_P1;HPM_P2
2022/05/26 00:02:29;;;;;;;2.95;2.22;;;;;;;15.45;74.71;100574.75;6062011;29;20040;-95
2022/05/26 00:05:31;;;;;;;5.28;2.92;;;;;;;15.33;76.62;100566.38;6062174;29;20020;-96
2022/05/26 00:08:34;;;;;;;4.00;2.58;;;;;;;15.32;77.95;100569.94;6068080;29;20068;-96
2022/05/26 00:11:38;;;;;;;3.03;2.38;;;;;;;15.41;78.37;100571.63;6054079;29;20048;-96
2022/05/26 00:14:41;;;;;;;3.40;2.50;;;;;;;15.41;77.05;100583.88;6054989;29;20107;-94
2022/05/26 00:17:43;;;;;;;7.07;2.40;;;;;;;15.43;78.64;100587.16;6061350;29;20538;-93
2022/05/26 00:20:45;;;;;;;4.32;2.30;;;;;;;15.36;78.87;100576.50;6068515;29;20415;-95
2022/05/26 00:23:47;;;;;;;5.22;2.88;;;;;;;15.33;80.39;100595.06;6066211;29;20040;-91
2022/05/26 00:26:49;;;;;;;3.35;2.50;;;;;;;15.27;83.72;100585.22;6067778;29;20479;-94
2022/05/26 00:29:53;;;;;;;4.03;2.58;;;;;;;15.15;85.54;100589.84;6057876;29;20040;-93
2022/05/26 00:32:56;;;;;;;3.20;2.90;;;;;;;15.08;87.26;100604.47;6065528;29;20044;-95
2022/05/26 00:36:06;;;;;;;6.95;3.08;;;;;;;15.05;89.50;100595.16;6064095;29;20033;-96
2022/05/26 00:39:08;;;;;;;3.40;3.10;;;;;;;14.99;89.44;100602.72;6074840;29;20474;-94
2022/05/26 00:42:11;;;;;;;5.45;2.90;;;;;;;14.98;91.30;100590.66;6068252;29;20056;-93
2022/05/26 00:45:12;;;;;;;4.55;2.88;;;;;;;14.90;91.90;100587.97;6056151;29;20064;-95
2022/05/26 00:48:19;;;;;;;5.35;3.00;;;;;;;14.78;94.11;100592.56;6071554;29;20059;-95
2022/05/26 00:51:27;;;;;;;3.50;2.60;;;;;;;14.78;94.44;100597.78;6060416;29;20494;-94
2022/05/26 00:54:29;;;;;;;2.63;2.38;;;;;;;14.80;95.47;100588.84;6067458;29;20530;-95
2022/05/26 00:57:39;;;;;;;6.22;2.90;;;;;;;14.69;96.02;100578.66;6063847;29;20059;-95
2022/05/26 01:00:41;;;;;;;3.40;2.83;;;;;;;14.63;97.48;100580.06;6067276;29;20123;-96
2022/05/26 01:03:50;;;;;;;4.07;2.50;;;;;;;14.58;98.61;100576.22;6065593;29;20262;-95
2022/05/26 01:07:01;;;;;;;6.57;2.70;;;;;;;14.48;98.90;100578.03;6056279;29;20102;-93
2022/05/26 01:10:06;;;;;;;3.47;2.90;;;;;;;14.53;99.71;100568.84;6070437;29;20079;-95
2022/05/26 01:13:08;;;;;;;4.40;2.80;;;;;;;14.52;99.65;100576.78;6083971;29;20182;-96
2022/05/26 01:16:20;;;;;;;3.45;2.80;;;;;;;14.46;100.00;100569.53;6071883;29;20072;-94
2022/05/26 01:19:31;;;;;;;6.43;3.05;;;;;;;14.52;99.50;100566.38;6073422;29;20060;-96
2022/05/26 01:22:51;;;;;;;;;;;;;;;14.48;100.00;100568.44;6050604;29;20675;-96
2022/05/26 01:26:31;;;;;;;3.92;2.83;;;;;;;14.44;100.00;100567.09;6076242;29;19931;-96
2022/05/26 01:29:55;;;;;;;7.37;3.70;;;;;;;14.51;99.44;100572.53;6047599;29;20104;-96
2022/05/26 01:33:05;;;;;;;5.75;3.10;;;;;;;14.54;98.55;100567.91;6053756;29;20040;-96
2022/05/26 01:36:19;;;;;;;4.90;3.55;;;;;;;14.62;97.43;100572.38;6072038;29;20044;-96
2022/05/26 01:39:42;;;;;;;5.55;3.47;;;;;;;14.59;98.40;100572.66;6071657;29;20053;-96
2022/05/26 01:42:44;;;;;;;5.68;3.35;;;;;;;14.63;97.21;100563.59;6058441;29;20047;-96
2022/05/26 01:45:53;;;;;;;5.65;3.30;;;;;;;14.74;96.90;100570.38;6052544;29;20103;-96
2022/05/26 01:48:58;;;;;;;4.38;3.55;;;;;;;14.72;96.26;100570.53;6071556;29;20048;-95
2022/05/26 01:52:27;;;;;;;5.22;3.35;;;;;;;14.73;95.59;100572.19;6064466;29;20486;-96
2022/05/26 01:55:51;;;;;;;3.95;3.10;;;;;;;14.68;96.64;100570.97;6066661;29;20044;-96
2022/05/26 01:59:12;;;;;;;5.40;3.40;;;;;;;14.72;96.18;100573.13;6048702;29;20040;-96
2022/05/26 02:02:25;;;;;;;3.22;2.85;;;;;;;14.73;96.72;100574.78;6064845;29;20052;-96
2022/05/26 02:05:31;;;;;;;4.32;3.25;;;;;;;14.72;95.94;100565.31;6057597;29;20045;-96
2022/05/26 02:08:39;;;;;;;5.28;3.70;;;;;;;14.74;96.11;100576.41;6059322;29;20678;-96
2022/05/26 02:11:57;;;;;;;8.55;3.60;;;;;;;14.74;96.40;100575.59;6072923;29;20044;-96
2022/05/26 02:15:10;;;;;;;8.00;3.90;;;;;;;14.80;96.33;100570.59;6073048;29;20179;-96
2022/05/26 02:18:24;;;;;;;3.65;3.20;;;;;;;14.85;95.37;100568.38;6064896;29;20045;-96
2022/05/26 02:21:45;;;;;;;3.88;3.05;;;;;;;14.84;95.56;100577.16;6067301;29;20037;-96
2022/05/26 02:25:07;;;;;;;5.20;3.30;;;;;;;14.83;95.90;100574.69;6056312;29;20040;-95
2022/05/26 02:28:09;;;;;;;3.90;2.92;;;;;;;14.84;96.38;100579.78;6051922;29;20132;-96
2022/05/26 02:31:11;;;;;;;4.55;3.10;;;;;;;14.86;96.34;100574.44;6064682;29;20063;-95
2022/05/26 02:34:14;;;;;;;3.78;3.33;;;;;;;14.82;97.67;100579.09;6050674;29;20056;-96
2022/05/26 02:37:17;;;;;;;4.03;3.33;;;;;;;14.83;97.64;100577.31;6070245;29;20123;-96
2022/05/26 02:40:19;;;;;;;5.00;3.05;;;;;;;14.78;98.70;100577.78;6076673;29;20462;-95
2022/05/26 02:43:29;;;;;;;4.60;3.60;;;;;;;14.85;97.99;100573.59;6055735;29;20519;-96
2022/05/26 02:46:50;;;;;;;3.70;3.33;;;;;;;14.76;99.49;100574.50;6064983;29;20052;-94
2022/05/26 02:50:23;;;;;;;5.13;3.58;;;;;;;14.78;98.46;100587.34;6066892;29;20130;-95
2022/05/26 02:53:50;;;;;;;4.20;3.47;;;;;;;14.84;99.40;100581.56;6076124;29;20530;-96
2022/05/26 02:57:37;;;;;;;4.55;3.80;;;;;;;14.75;99.84;100579.84;6048246;29;20662;-96
2022/05/26 03:01:02;;;;;;;5.22;4.47;;;;;;;14.75;100.00;100572.00;5935901;29;20608;-96
2022/05/26 03:04:14;;;;;;;6.75;5.13;;;;;;;14.79;99.41;100582.00;5930892;29;20062;-96
2022/05/26 03:07:22;;;;;;;7.57;5.65;;;;;;;14.77;100.00;100581.31;5927896;29;20166;-96
2022/05/26 03:10:27;;;;;;;8.50;5.07;;;;;;;14.74;100.00;100581.63;5946660;29;20618;-96
2022/05/26 03:13:29;;;;;;;9.75;6.18;;;;;;;14.73;99.79;100574.78;5933005;29;20068;-96
2022/05/26 03:16:31;;;;;;;9.00;5.82;;;;;;;14.72;99.58;100583.56;5949389;29;20474;-96
2022/05/26 03:19:33;;;;;;;10.02;6.10;;;;;;;14.72;100.00;100577.53;5934015;29;20055;-96
2022/05/26 03:22:35;;;;;;;8.48;5.90;;;;;;;14.68;99.91;100570.97;5937663;29;20597;-94
2022/05/26 03:25:37;;;;;;;12.63;5.75;;;;;;;14.72;100.00;100580.13;5950668;29;20054;-95
2022/05/26 03:28:39;;;;;;;8.07;6.15;;;;;;;14.69;100.00;100577.81;5948996;29;20069;-95
2022/05/26 03:31:41;;;;;;;7.75;5.90;;;;;;;14.69;100.00;100581.25;5946227;29;20093;-96
2022/05/26 03:41:25;;;;;;;8.32;5.82;;;;;;;14.61;100.00;100581.16;6063594;29;20072;-96
2022/05/26 03:44:30;;;;;;;7.65;5.80;;;;;;;14.61;100.00;100581.16;6049746;29;20495;-94
2022/05/26 03:47:32;;;;;;;7.63;6.78;;;;;;;14.63;100.00;100587.03;6057156;29;20096;-96
2022/05/26 03:50:35;;;;;;;8.95;6.85;;;;;;;14.52;100.00;100582.00;6043411;29;20044;-96
2022/05/26 03:53:37;;;;;;;8.20;6.82;;;;;;;14.15;100.00;100594.06;6064632;29;20405;-96
2022/05/26 03:56:39;;;;;;;10.38;6.80;;;;;;;13.81;100.00;100593.75;6072092;29;20060;-96
2022/05/26 03:59:41;;;;;;;9.57;6.97;;;;;;;13.74;100.00;100582.31;6086132;29;20115;-96
2022/05/26 04:02:44;;;;;;;8.00;6.18;;;;;;;13.66;100.00;100593.38;6073039;29;20040;-96
2022/05/26 04:05:46;;;;;;;11.32;7.43;;;;;;;13.71;100.00;100604.22;6082930;29;20045;-96
2022/05/26 04:08:48;;;;;;;7.70;7.00;;;;;;;13.78;100.00;100609.66;6077394;29;20044;-95
2022/05/26 04:11:49;;;;;;;10.35;7.40;;;;;;;13.76;100.00;100628.03;6071029;29;20041;-96
2022/05/26 04:14:52;;;;;;;10.93;8.48;;;;;;;13.64;100.00;100626.53;6056771;29;20426;-91
2022/05/26 04:17:54;;;;;;;13.50;9.15;;;;;;;13.49;100.00;100646.94;6067738;29;20044;-95
2022/05/26 04:21:10;;;;;;;10.57;9.23;;;;;;;13.20;100.00;100651.28;6086249;29;20124;-96
2022/05/26 04:24:12;;;;;;;13.02;9.95;;;;;;;13.07;100.00;100641.94;6067060;29;20053;-96
2022/05/26 04:27:20;;;;;;;13.73;10.13;;;;;;;12.93;100.00;100650.13;6076272;29;20052;-96
2022/05/26 04:30:23;;;;;;;13.85;10.15;;;;;;;12.82;100.00;100676.19;6073600;29;20060;-96
2022/05/26 04:33:26;;;;;;;11.63;9.15;;;;;;;12.80;100.00;100665.13;6074601;29;20052;-95
2022/05/26 04:36:29;;;;;;;14.80;9.48;;;;;;;12.80;100.00;100657.34;6051580;29;20414;-94
2022/05/26 04:39:31;;;;;;;7.32;6.60;;;;;;;12.82;100.00;100658.00;6068587;29;20045;-95
2022/05/26 04:42:34;;;;;;;8.00;7.18;;;;;;;12.79;100.00;100653.09;6074910;29;20051;-95
2022/05/26 04:45:36;;;;;;;7.43;6.05;;;;;;;12.78;100.00;100648.84;6038641;29;20045;-94
2022/05/26 04:48:38;;;;;;;11.30;6.97;;;;;;;12.86;100.00;100655.00;6045901;29;20045;-95
2022/05/26 04:51:42;;;;;;;8.98;7.43;;;;;;;12.82;100.00;100663.19;6076762;29;20076;-96
2022/05/26 04:54:45;;;;;;;10.82;8.57;;;;;;;12.90;100.00;100669.41;6046491;29;20100;-94
2022/05/26 04:57:48;;;;;;;9.45;8.23;;;;;;;12.92;100.00;100664.06;6074105;29;20044;-96
2022/05/26 05:00:50;;;;;;;10.00;8.68;;;;;;;12.95;100.00;100669.00;6078573;29;20495;-96
2022/05/26 05:03:52;;;;;;;12.20;9.43;;;;;;;13.08;100.00;100672.16;6085064;29;20051;-96
2022/05/26 05:06:55;;;;;;;14.02;9.85;;;;;;;13.30;100.00;100680.72;6072417;29;20049;-95
2022/05/26 05:09:57;;;;;;;11.75;9.80;;;;;;;13.41;100.00;100675.38;6083762;29;20045;-96
2022/05/26 05:13:00;;;;;;;12.75;8.95;;;;;;;13.55;100.00;100682.78;6064610;29;20040;-96
2022/05/26 05:16:30;;;;;;;10.80;8.70;;;;;;;13.58;100.00;100679.91;6075100;29;20052;-96
2022/05/26 05:19:32;;;;;;;11.80;9.57;;;;;;;13.72;100.00;100683.06;6054935;29;20048;-96
2022/05/26 05:22:53;;;;;;;13.63;9.65;;;;;;;13.93;100.00;100681.13;6082066;29;20604;-96
2022/05/26 05:25:59;;;;;;;13.65;9.68;;;;;;;14.02;100.00;100682.06;6055542;29;20139;-96
2022/05/26 05:29:09;;;;;;;9.50;8.25;;;;;;;14.24;100.00;100686.16;6068811;29;20040;-96
2022/05/26 05:32:29;;;;;;;10.98;6.80;;;;;;;14.40;100.00;100707.19;6050142;29;20045;-96
2022/05/26 05:35:44;;;;;;;9.98;7.15;;;;;;;14.34;100.00;100710.38;6069382;29;20045;-94
2022/05/26 05:38:47;;;;;;;8.88;6.75;;;;;;;14.39;100.00;100713.38;6056510;29;20569;-94
2022/05/26 05:41:48;;;;;;;11.27;6.45;;;;;;;14.38;100.00;100721.31;6081604;29;20479;-95
2022/05/26 05:44:50;;;;;;;7.78;6.85;;;;;;;14.27;100.00;100714.50;6048193;29;20049;-92
2022/05/26 05:47:52;;;;;;;10.30;6.82;;;;;;;14.09;100.00;100718.78;6068466;29;20048;-95
2022/05/26 05:50:54;;;;;;;7.45;5.82;;;;;;;14.13;100.00;100709.72;6051813;29;20045;-96
2022/05/26 05:53:56;;;;;;;8.10;6.60;;;;;;;14.21;100.00;100709.88;6067656;29;20070;-96
2022/05/26 05:56:58;;;;;;;10.13;5.68;;;;;;;14.33;100.00;100705.28;6064476;29;20399;-96
2022/05/26 06:00:00;;;;;;;7.43;6.25;;;;;;;14.16;100.00;100714.66;6074156;29;20122;-95
2022/05/26 06:03:03;;;;;;;7.57;6.13;;;;;;;14.07;100.00;100718.09;6067984;29;20573;-96
2022/05/26 06:06:07;;;;;;;8.02;6.07;;;;;;;14.18;100.00;100713.53;6058926;29;20121;-95
2022/05/26 06:09:13;;;;;;;7.50;5.88;;;;;;;14.29;100.00;100723.00;6064205;29;20586;-92
2022/05/26 06:12:16;;;;;;;8.38;5.07;;;;;;;14.39;100.00;100731.59;6059698;29;20048;-92
2022/05/26 06:15:18;;;;;;;10.30;6.30;;;;;;;14.37;100.00;100730.91;6051702;29;20221;-93
2022/05/26 06:18:20;;;;;;;8.43;5.53;;;;;;;14.35;100.00;100730.22;6067022;29;20051;-95
2022/05/26 06:21:22;;;;;;;9.10;5.90;;;;;;;14.46;100.00;100734.47;6047315;29;20131;-92
2022/05/26 06:24:25;;;;;;;8.73;6.07;;;;;;;14.68;100.00;100728.09;6067653;29;20056;-93
2022/05/26 06:30:47;;;;;;;7.55;6.35;;;;;;;15.03;100.00;100729.19;6063816;29;20045;-96
2022/05/26 06:37:16;;;;;;;8.63;5.75;;;;;;;15.52;100.00;100740.16;6064198;29;20423;-93
2022/05/26 06:40:18;;;;;;;8.13;5.65;;;;;;;15.62;100.00;100743.50;6064521;29;20040;-91
2022/05/26 06:43:20;;;;;;;9.48;6.07;;;;;;;15.78;100.00;100742.06;6075417;29;20048;-94
2022/05/26 06:46:23;;;;;;;9.00;5.72;;;;;;;15.85;100.00;100748.31;6078095;29;20463;-91
2022/05/26 06:49:25;;;;;;;9.65;6.20;;;;;;;15.75;100.00;100752.78;6066037;29;20045;-92
2022/05/26 06:52:28;;;;;;;10.00;6.22;;;;;;;15.73;100.00;100752.16;6060965;29;20056;-93
2022/05/26 06:55:30;;;;;;;14.80;6.53;;;;;;;15.86;100.00;100763.03;6059275;29;20119;-92
2022/05/26 06:58:32;;;;;;;9.40;6.07;;;;;;;16.02;100.00;100768.38;6061448;29;20048;-93
2022/05/26 07:01:34;;;;;;;11.90;6.30;;;;;;;16.38;100.00;100759.69;6065305;29;20055;-93
2022/05/26 07:04:39;;;;;;;9.20;6.13;;;;;;;16.71;100.00;100765.91;6051043;29;20406;-91
2022/05/26 07:07:41;;;;;;;9.40;6.18;;;;;;;16.73;100.00;100779.66;6064957;29;20068;-93
2022/05/26 07:10:45;;;;;;;10.55;6.15;;;;;;;16.66;100.00;100774.22;6074980;29;20056;-92
2022/05/26 07:13:47;;;;;;;10.20;6.60;;;;;;;16.69;100.00;100773.06;6068419;29;20088;-95
2022/05/26 07:16:49;;;;;;;13.35;6.38;;;;;;;16.67;100.00;100791.56;6064672;29;20049;-92
2022/05/26 07:19:52;;;;;;;10.13;6.97;;;;;;;16.33;100.00;100789.69;6065068;29;20517;-91
2022/05/26 07:22:56;;;;;;;11.27;6.32;;;;;;;16.13;100.00;100785.63;6049695;29;20048;-92
2022/05/26 07:25:58;;;;;;;9.27;7.00;;;;;;;16.18;100.00;100777.31;6066530;29;20094;-92
2022/05/26 07:29:01;;;;;;;12.45;6.53;;;;;;;16.25;100.00;100792.25;6068237;29;20398;-94
2022/05/26 07:32:03;;;;;;;9.77;7.28;;;;;;;16.47;100.00;100798.78;6054588;29;20068;-95
2022/05/26 07:35:06;;;;;;;12.38;7.47;;;;;;;16.72;100.00;100802.34;6068031;29;20043;-94
2022/05/26 07:41:28;;;;;;;10.73;6.13;;;;;;;17.34;100.00;100790.88;6065571;29;20049;-92
2022/05/26 07:44:35;;;;;;;10.00;6.45;;;;;;;17.52;100.00;100802.06;6071667;29;20055;-93
2022/05/26 07:47:37;;;;;;;9.23;5.72;;;;;;;17.28;100.00;100797.56;6068706;29;20040;-93
2022/05/26 07:50:40;;;;;;;8.93;5.90;;;;;;;17.00;100.00;100797.78;6066368;29;20040;-93
2022/05/26 07:53:41;;;;;;;8.15;5.38;;;;;;;16.74;100.00;100791.72;6071750;29;20052;-93
2022/05/26 07:56:43;;;;;;;8.38;5.70;;;;;;;16.66;100.00;100800.34;6065230;29;20060;-93
2022/05/26 07:59:45;;;;;;;8.30;5.43;;;;;;;16.72;100.00;100820.66;6066795;29;20052;-92
2022/05/26 08:02:47;;;;;;;8.20;6.47;;;;;;;16.76;100.00;100823.78;6062522;29;20143;-94
2022/05/26 08:05:49;;;;;;;10.60;6.43;;;;;;;16.91;100.00;100829.28;6070599;29;20532;-94
2022/05/26 08:08:51;;;;;;;10.60;6.22;;;;;;;16.82;100.00;100828.44;6051358;29;20048;-93
2022/05/26 08:11:53;;;;;;;11.13;5.70;;;;;;;16.54;99.62;100833.75;6068275;29;20057;-93
2022/05/26 08:14:55;;;;;;;8.50;5.88;;;;;;;16.36;100.00;100838.19;6069740;29;20060;-92
2022/05/26 08:17:57;;;;;;;9.27;6.47;;;;;;;16.32;100.00;100834.22;6069773;29;20063;-94
2022/05/26 08:21:16;;;;;;;8.75;5.75;;;;;;;16.38;100.00;100838.88;6080894;29;20135;-93
2022/05/26 08:24:19;;;;;;;9.18;5.80;;;;;;;16.59;100.00;100835.91;6076040;29;20052;-96
2022/05/26 08:27:22;;;;;;;11.10;6.25;;;;;;;16.71;100.00;100842.53;6075765;29;20550;-94
2022/05/26 08:30:24;;;;;;;10.98;6.20;;;;;;;16.90;99.80;100851.19;6074505;29;20056;-96
2022/05/26 08:33:27;;;;;;;6.43;4.55;;;;;;;16.97;93.80;100849.59;6055640;29;20123;-95
2022/05/26 08:36:29;;;;;;;7.00;4.32;;;;;;;17.21;91.78;100862.78;6074148;29;20044;-94
2022/05/26 08:39:34;;;;;;;5.85;3.70;;;;;;;17.33;88.62;100867.75;6068174;29;20044;-95
2022/05/26 08:42:35;;;;;;;6.15;3.88;;;;;;;17.34;86.48;100865.00;6069059;29;20049;-96
2022/05/26 08:45:44;;;;;;;7.47;4.05;;;;;;;17.37;90.09;100854.19;6066977;29;20053;-92
2022/05/26 08:49:02;;;;;;;8.38;4.07;;;;;;;17.46;89.05;100852.44;6065124;29;20049;-95
2022/05/26 08:52:08;;;;;;;3.90;3.50;;;;;;;17.68;85.24;100882.44;6074612;29;20148;-93
2022/05/26 08:55:21;;;;;;;7.35;4.20;;;;;;;17.86;83.40;100854.38;6078252;29;20107;-96
2022/05/26 08:58:45;;;;;;;7.15;3.90;;;;;;;18.06;84.98;100870.63;6071714;29;20048;-93
2022/05/26 09:01:56;;;;;;;6.38;3.05;;;;;;;17.79;81.32;100874.31;6069384;29;20135;-96
2022/05/26 09:05:19;;;;;;;9.15;2.88;;;;;;;17.86;79.07;100875.34;6065580;29;20241;-95
2022/05/26 09:14:50;;;;;;;5.38;2.90;;;;;;;18.61;74.66;100884.09;6075525;29;20513;-95
2022/05/26 09:17:53;;;;;;;7.88;2.97;;;;;;;18.87;70.03;100892.59;6070774;29;20056;-95
2022/05/26 09:21:22;;;;;;;5.15;2.95;;;;;;;19.02;72.26;100895.34;6064901;29;20690;-96
2022/05/26 09:24:36;;;;;;;4.72;2.63;;;;;;;18.94;72.04;100892.75;6077861;29;20402;-94
2022/05/26 09:27:39;;;;;;;5.05;2.78;;;;;;;19.25;72.25;100897.25;6072013;29;20055;-96
2022/05/26 09:30:41;;;;;;;5.90;2.65;;;;;;;19.18;72.61;100901.53;6067870;29;20052;-93
2022/05/26 09:33:43;;;;;;;4.40;2.40;;;;;;;18.83;70.43;100901.81;6076051;29;20044;-94
2022/05/26 09:36:55;;;;;;;4.88;2.58;;;;;;;18.44;73.50;100902.44;6072164;29;20053;-96
2022/05/26 09:40:19;;;;;;;8.32;3.00;;;;;;;18.13;73.95;100904.84;6055821;29;20040;-95
2022/05/26 09:43:26;;;;;;;4.70;2.30;;;;;;;18.01;75.52;100912.22;6065365;29;20127;-96
2022/05/26 09:46:30;;;;;;;5.60;2.78;;;;;;;17.79;74.53;100931.91;6064208;29;20419;-95
2022/05/26 09:49:40;;;;;;;7.38;3.03;;;;;;;18.00;76.57;100920.22;6084045;29;20063;-96
2022/05/26 09:52:46;;;;;;;4.72;2.70;;;;;;;18.12;76.11;100925.97;6076227;29;20054;-95
2022/05/26 09:55:50;;;;;;;6.10;3.03;;;;;;;18.11;77.05;100930.41;6076564;29;20056;-95
2022/05/26 09:58:53;;;;;;;5.95;3.20;;;;;;;18.26;76.55;100927.94;6071509;29;20049;-96
2022/05/26 10:02:05;;;;;;;5.30;2.47;;;;;;;18.39;73.91;100922.25;6071050;29;20051;-94
2022/05/26 10:05:24;;;;;;;3.65;2.72;;;;;;;18.57;73.63;100937.84;6061148;29;20169;-96
2022/05/26 10:08:58;;;;;;;7.97;3.10;;;;;;;18.71;75.44;100938.00;6078726;29;20507;-93
2022/05/26 10:12:25;;;;;;;4.57;2.63;;;;;;;18.87;70.49;100939.81;6058762;29;20052;-93
2022/05/26 10:15:52;;;;;;;7.75;2.50;;;;;;;18.75;69.98;100993.56;6067075;29;20056;-95
2022/05/26 10:19:14;;;;;;;7.18;2.63;;;;;;;18.47;71.26;100943.22;6051297;29;20827;-96
2022/05/26 10:22:38;;;;;;;6.53;2.67;;;;;;;18.44;72.72;100935.69;6070039;29;20044;-95
2022/05/26 10:26:18;;;;;;;6.00;2.80;;;;;;;18.68;74.48;100935.72;6080184;29;20426;-95
2022/05/26 10:29:48;;;;;;;4.95;2.92;;;;;;;19.17;70.58;100955.03;6064844;29;20396;-95
2022/05/26 10:33:30;;;;;;;5.40;2.55;;;;;;;19.11;67.15;100946.84;6077659;29;20056;-92
2022/05/26 10:36:53;;;;;;;7.43;2.28;;;;;;;18.89;68.47;100943.09;6076132;29;20055;-95
2022/05/26 10:40:15;;;;;;;7.70;2.38;;;;;;;19.04;67.75;100950.31;6054423;29;20147;-93
2022/05/26 10:43:49;;;;;;;4.97;2.58;;;;;;;19.21;69.03;100951.91;6054991;29;20044;-96
2022/05/26 10:47:07;;;;;;;5.80;2.35;;;;;;;19.23;66.13;100959.59;6051387;29;20049;-95
2022/05/26 10:50:36;;;;;;;5.82;2.60;;;;;;;19.69;65.83;100952.78;6041974;29;20133;-96
2022/05/26 10:53:57;;;;;;;4.50;2.30;;;;;;;19.76;64.08;100945.03;6057098;29;20112;-93
2022/05/26 10:57:07;;;;;;;8.02;2.33;;;;;;;19.83;64.49;100953.06;6054044;29;20045;-93
2022/05/26 11:00:14;;;;;;;3.87;2.07;;;;;;;19.66;62.90;100953.09;6050421;29;20060;-94
2022/05/26 11:03:36;;;;;;;4.53;2.00;;;;;;;19.28;61.12;100966.00;6073180;29;20325;-90
2022/05/26 11:06:45;;;;;;;4.90;1.83;;;;;;;19.18;63.39;100957.50;6072265;29;20440;-89
2022/05/26 11:10:09;;;;;;;4.50;2.20;;;;;;;19.74;63.51;100949.63;6051792;29;20053;-86
2022/05/26 11:13:20;;;;;;;4.10;2.22;;;;;;;20.15;61.37;100958.16;6069368;29;20049;-88
2022/05/26 11:20:21;;;;;;;5.75;2.25;;;;;;;19.67;61.91;100953.91;6061662;29;20483;-90
2022/05/26 11:23:35;;;;;;;8.43;3.30;;;;;;;19.17;65.46;100958.47;6072179;29;20119;-91
2022/05/26 11:26:44;;;;;;;8.27;2.67;;;;;;;19.02;66.79;100976.69;6049864;29;20407;-94
2022/05/26 11:37:39;;;;;;;5.32;2.55;;;;;;;19.44;65.95;100953.81;5973417;29;20058;-94
2022/05/26 11:40:52;;;;;;;6.97;2.80;;;;;;;19.92;61.25;100971.22;5955995;29;20058;-96
2022/05/26 11:44:10;;;;;;;5.95;2.78;;;;;;;20.29;59.03;100966.28;5979664;29;20069;-95
2022/05/26 11:47:32;;;;;;;4.15;2.22;;;;;;;20.45;58.81;100955.66;5946223;29;20069;-95
2022/05/26 11:50:43;;;;;;;9.65;2.53;;;;;;;20.51;59.28;100954.13;5958948;29;20062;-94
2022/05/26 11:53:47;;;;;;;7.60;2.58;;;;;;;20.26;60.83;100961.38;5979663;29;20054;-93
2022/05/26 11:56:49;;;;;;;6.60;2.50;;;;;;;19.83;60.58;100942.56;5958059;29;20094;-95
2022/05/26 12:00:14;;;;;;;4.45;2.42;;;;;;;19.68;64.93;100948.53;5972314;29;20584;-93
2022/05/26 12:03:28;;;;;;;7.43;2.83;;;;;;;20.09;63.22;100929.91;5970797;29;20083;-95
2022/05/26 12:06:36;;;;;;;6.03;2.40;;;;;;;20.48;61.91;100925.56;5979207;29;20784;-95
2022/05/26 12:10:01;;;;;;;7.70;2.55;;;;;;;21.01;57.87;100926.41;6046877;29;20060;-94
2022/05/26 12:13:21;;;;;;;3.97;1.88;;;;;;;21.50;55.02;100925.91;6079067;29;20037;-95
2022/05/26 12:16:27;;;;;;;3.47;1.33;;;;;;;21.35;49.76;100933.00;6072254;29;20537;-94
2022/05/26 12:19:45;;;;;;;4.28;1.90;;;;;;;21.26;50.99;100930.44;6068972;29;20079;-92
2022/05/26 12:22:49;;;;;;;3.60;1.40;;;;;;;20.77;52.74;100930.94;6061507;29;20188;-93
2022/05/26 12:26:29;;;;;;;6.13;1.83;;;;;;;20.20;54.68;100947.13;6062853;29;20037;-93
2022/05/26 12:30:06;;;;;;;2.28;1.45;;;;;;;19.99;57.78;100947.72;5972071;29;20772;-92
2022/05/26 12:33:20;;;;;;;5.10;1.92;;;;;;;20.01;58.50;100943.91;5977900;29;20058;-94
2022/05/26 12:36:45;;;;;;;5.38;1.83;;;;;;;20.49;58.80;100925.38;5975924;29;20134;-96
2022/05/26 12:39:53;;;;;;;4.10;1.63;;;;;;;21.38;55.83;100925.53;5977058;29;20062;-96
2022/05/26 12:43:05;;;;;;;4.63;2.05;;;;;;;21.84;54.81;100925.34;5960822;29;20076;-96
2022/05/26 12:46:42;;;;;;;7.63;2.30;;;;;;;21.39;55.38;100915.84;5957275;29;20107;-96
2022/05/26 12:50:05;;;;;;;4.35;2.13;;;;;;;20.59;58.48;100919.91;5972220;29;20054;-96
2022/05/26 12:53:25;;;;;;;3.78;2.30;;;;;;;20.25;58.16;100917.66;5956363;29;20471;-95
2022/05/26 12:56:54;;;;;;;3.75;2.35;;;;;;;20.25;60.91;100901.88;5957657;29;20065;-95
2022/05/26 13:00:37;;;;;;;5.10;2.08;;;;;;;20.33;58.72;100905.28;5978552;29;20065;-96
2022/05/26 13:03:46;;;;;;;3.40;1.90;;;;;;;20.43;56.11;100908.47;5967064;29;20062;-94
2022/05/26 13:06:52;;;;;;;5.35;1.98;;;;;;;21.40;58.07;100910.41;6051719;29;20303;-94
2022/05/26 13:09:54;;;;;;;5.97;2.10;;;;;;;22.29;52.49;100918.13;6046707;29;20082;-93
2022/05/26 13:13:05;;;;;;;5.82;1.90;;;;;;;22.18;50.18;100894.84;6061404;29;20136;-94
2022/05/26 13:16:39;;;;;;;4.00;1.45;;;;;;;21.44;50.59;100898.50;6043469;29;20398;-95
2022/05/26 13:19:45;;;;;;;2.40;1.23;;;;;;;20.88;53.31;100915.72;6069043;29;20041;-95
2022/05/26 13:22:48;;;;;;;3.15;1.30;;;;;;;20.63;54.36;100889.63;6071541;29;20056;-90
2022/05/26 13:25:51;;;;;;;2.97;1.80;;;;;;;21.53;53.35;100887.84;6045941;29;20136;-89
2022/05/26 13:29:00;;;;;;;3.17;1.40;;;;;;;21.91;51.77;100875.31;6065085;29;20045;-89
2022/05/26 13:35:45;;;;;;;2.28;1.30;;;;;;;21.43;51.13;100885.50;6060434;29;20609;-90
2022/05/26 13:38:49;;;;;;;2.63;1.48;;;;;;;20.72;52.25;100892.97;6047133;29;20104;-89
2022/05/26 13:41:55;;;;;;;4.80;1.55;;;;;;;20.09;54.39;100887.84;6059167;29;20600;-91
2022/05/26 13:45:01;;;;;;;4.53;1.60;;;;;;;19.67;56.57;100885.63;6070045;29;20096;-90
2022/05/26 13:48:34;;;;;;;5.68;1.80;;;;;;;19.49;56.86;100891.13;6072109;29;20063;-91
2022/05/26 13:51:42;;;;;;;3.33;2.00;;;;;;;19.56;59.66;100892.06;6056380;29;20533;-90
2022/05/26 13:55:03;;;;;;;2.90;1.45;;;;;;;19.85;58.68;100877.50;6051406;29;20391;-90
2022/05/26 13:58:07;;;;;;;3.15;1.80;;;;;;;20.23;56.48;100878.41;6050472;29;20461;-90
2022/05/26 14:01:12;;;;;;;2.92;1.70;;;;;;;20.46;55.41;100867.88;6051388;29;20051;-90
2022/05/26 14:04:37;;;;;;;5.40;1.80;;;;;;;20.20;57.17;100863.81;6055099;29;20059;-90
2022/05/26 14:07:44;;;;;;;4.15;1.92;;;;;;;19.79;58.89;100868.50;6023850;29;20068;-89
2022/05/26 14:10:51;;;;;;;3.13;1.67;;;;;;;19.43;60.00;100881.28;6049117;29;20065;-90
2022/05/26 14:13:53;;;;;;;3.90;1.90;;;;;;;19.13;60.11;100889.78;6060034;29;20044;-90
2022/05/26 14:17:02;;;;;;;5.47;1.90;;;;;;;19.08;61.83;100876.34;6050733;29;20045;-90
2022/05/26 14:20:25;;;;;;;4.03;2.10;;;;;;;19.05;62.41;100886.34;6066350;29;20041;-89
2022/05/26 14:23:31;;;;;;;5.03;2.08;;;;;;;18.94;63.71;100880.47;6069674;29;20048;-90
2022/05/26 14:26:44;;;;;;;6.30;2.30;;;;;;;18.95;62.83;100878.66;6058044;29;20048;-89
2022/05/26 14:29:54;;;;;;;5.32;2.25;;;;;;;19.03;63.18;100875.19;6059148;29;20044;-91
2022/05/26 14:33:07;;;;;;;;;;;;;;;19.15;64.25;100871.22;6046112;29;20531;-89
2022/05/26 14:36:10;;;;;;;5.93;2.45;;;;;;;19.10;63.78;100868.28;6067813;29;19975;-90
2022/05/26 14:39:13;;;;;;;5.72;2.70;;;;;;;19.18;61.63;100870.06;6050239;29;20599;-91
2022/05/26 14:42:22;;;;;;;11.02;2.35;;;;;;;19.29;63.44;100864.44;6055858;29;20048;-90
2022/05/26 14:45:29;;;;;;;7.10;2.90;;;;;;;19.24;62.51;100866.78;6041927;29;20055;-91
2022/05/26 14:48:31;;;;;;;6.15;3.10;;;;;;;19.22;60.90;100866.13;6055703;29;20036;-91
2022/05/26 14:51:36;;;;;;;6.18;2.97;;;;;;;19.15;63.79;100866.81;6070913;29;20064;-91
2022/05/26 14:58:09;;;;;;;6.05;2.63;;;;;;;19.05;65.17;100871.41;6073480;29;20461;-89
2022/05/26 15:01:12;;;;;;;10.35;3.00;;;;;;;19.21;61.79;100862.69;6061703;29;20056;-92
2022/05/26 15:04:14;;;;;;;4.55;2.85;;;;;;;19.47;59.66;100872.91;6066427;29;20097;-92
2022/05/26 15:07:18;;;;;;;4.88;2.63;;;;;;;19.77;59.07;100868.66;6065378;29;20818;-91
2022/05/26 15:10:21;;;;;;;4.00;3.00;;;;;;;20.35;59.16;100849.91;6055719;29;20226;-91
2022/05/26 15:13:25;;;;;;;9.45;3.00;;;;;;;20.59;55.52;100860.22;6062530;29;20044;-91
2022/05/26 15:16:27;;;;;;;5.85;2.78;;;;;;;20.36;57.50;100856.78;6066242;29;20044;-90
2022/05/26 15:19:43;;;;;;;8.00;3.60;;;;;;;19.94;56.28;100852.81;6055176;29;20651;-91